createdAt,value
2018-11-29T00:02:05.897Z,15.70
2018-11-29T00:04:34.038Z,15.17
2018-11-29T00:07:02.135Z,15.40
2018-11-29T00:09:34.549Z,13.33
2018-11-29T00:12:02.676Z,14.60
2018-11-29T00:14:30.827Z,15.83
2018-11-29T00:16:58.925Z,15.20
2018-11-29T00:19:27.024Z,16.70
2018-11-29T00:21:55.243Z,15.00
2018-11-29T00:24:23.318Z,14.20
2018-11-29T00:26:51.440Z,14.67
2018-11-29T00:29:19.584Z,15.60
2018-11-29T00:31:47.684Z,15.00
2018-11-29T00:34:15.747Z,15.33
2018-11-29T00:36:43.941Z,15.80
2018-11-29T00:39:12.075Z,14.97
2018-11-29T00:41:40.187Z,15.60
2018-11-29T00:44:08.274Z,15.73
2018-11-29T00:46:36.915Z,16.17
2018-11-29T00:49:05.067Z,15.60
2018-11-29T00:51:33.449Z,14.70
2018-11-29T00:54:01.520Z,16.27
2018-11-29T00:56:29.600Z,14.70
2018-11-29T00:58:57.692Z,15.47
2018-11-29T01:01:25.945Z,16.37
2018-11-29T01:03:54.075Z,14.87
2018-11-29T01:06:22.206Z,16.53
2018-11-29T01:08:50.325Z,15.67
2018-11-29T01:11:18.451Z,16.00
2018-11-29T01:13:46.636Z,16.50
2018-11-29T01:16:14.743Z,15.57
2018-11-29T01:18:42.878Z,15.00
2018-11-29T01:21:11.033Z,16.20
2018-11-29T01:23:39.099Z,14.80
2018-11-29T01:26:07.240Z,16.17
2018-11-29T01:28:35.483Z,15.67
2018-11-29T01:31:03.742Z,17.03
2018-11-29T01:33:31.813Z,15.37
2018-11-29T01:35:59.901Z,16.20
2018-11-29T01:38:27.986Z,15.30
2018-11-29T01:40:56.054Z,15.53
2018-11-29T01:43:24.131Z,16.83
2018-11-29T01:45:52.347Z,14.87
2018-11-29T01:48:20.482Z,14.47
2018-11-29T01:50:48.704Z,14.97
2018-11-29T01:53:16.859Z,15.23
2018-11-29T01:55:44.975Z,14.70
2018-11-29T01:58:13.076Z,15.87
2018-11-29T02:00:41.294Z,14.90
2018-11-29T02:03:09.431Z,16.17
2018-11-29T02:05:37.518Z,15.03
2018-11-29T02:08:05.992Z,14.83
2018-11-29T02:10:39.657Z,14.10
2018-11-29T02:13:08.304Z,15.50
2018-11-29T02:15:36.384Z,14.77
2018-11-29T02:18:04.507Z,15.37
2018-11-29T02:20:32.642Z,14.07
2018-11-29T02:23:00.807Z,14.17
2018-11-29T02:25:28.886Z,14.20
2018-11-29T02:27:57.768Z,14.60
2018-11-29T02:30:25.944Z,16.07
2018-11-29T02:32:54.970Z,15.03
2018-11-29T02:35:23.043Z,16.03
2018-11-29T02:37:51.103Z,15.60
2018-11-29T02:40:19.572Z,13.93
2018-11-29T02:42:48.504Z,14.93
2018-11-29T02:45:20.084Z,14.50
2018-11-29T02:47:48.647Z,16.17
2018-11-29T02:50:16.843Z,15.60
2018-11-29T02:52:45.512Z,16.20
2018-11-29T02:55:13.944Z,15.57
2018-11-29T02:57:42.426Z,14.40
2018-11-29T03:00:12.379Z,13.77
2018-11-29T03:02:40.482Z,15.20
2018-11-29T03:05:08.752Z,16.00
2018-11-29T03:07:37.067Z,15.33
2018-11-29T03:10:06.363Z,14.80
2018-11-29T03:12:34.436Z,14.03
2018-11-29T03:15:02.912Z,15.30
2018-11-29T03:17:31.038Z,14.90
2018-11-29T03:19:59.158Z,14.80
2018-11-29T03:22:27.239Z,15.50
2018-11-29T03:24:55.386Z,16.03
2018-11-29T03:27:23.555Z,15.10
2018-11-29T03:29:51.707Z,13.70
2018-11-29T03:32:19.875Z,14.93
2018-11-29T03:34:47.953Z,15.37
2018-11-29T03:37:16.092Z,14.30
2018-11-29T03:39:44.877Z,14.90
2018-11-29T03:42:13.023Z,15.20
2018-11-29T03:44:41.124Z,14.93
2018-11-29T03:47:09.221Z,15.43
2018-11-29T03:49:37.336Z,16.37
2018-11-29T03:52:05.857Z,15.83
2018-11-29T03:54:33.987Z,15.17
2018-11-29T03:57:02.111Z,15.93
2018-11-29T03:59:30.208Z,16.00
2018-11-29T04:01:58.323Z,15.97
2018-11-29T04:04:26.426Z,15.23
2018-11-29T04:06:55.492Z,15.40
2018-11-29T04:09:23.589Z,14.80
2018-11-29T04:11:51.650Z,17.03
2018-11-29T04:14:19.727Z,16.20
2018-11-29T04:16:47.793Z,16.27
2018-11-29T04:19:15.968Z,17.23
2018-11-29T04:21:44.043Z,15.50
2018-11-29T04:24:12.215Z,17.23
2018-11-29T04:26:40.388Z,15.37
2018-11-29T04:29:08.487Z,16.37
2018-11-29T04:31:37.019Z,16.67
2018-11-29T04:34:05.620Z,16.53
2018-11-29T04:36:33.937Z,18.00
2018-11-29T04:39:02.101Z,17.37
2018-11-29T04:41:30.199Z,17.23
2018-11-29T04:43:58.324Z,18.20
2018-11-29T04:46:41.978Z,17.47
2018-11-29T04:49:10.294Z,18.63
2018-11-29T04:51:38.442Z,18.10
2018-11-29T04:54:06.939Z,19.30
2018-11-29T04:56:35.067Z,18.20
2018-11-29T04:59:03.171Z,17.77
2018-11-29T05:01:31.242Z,18.90
2018-11-29T05:03:59.339Z,18.97
2018-11-29T05:06:27.436Z,18.97
2018-11-29T05:08:55.860Z,17.75
2018-11-29T05:11:24.087Z,17.00
2018-11-29T05:13:52.390Z,18.53
2018-11-29T05:16:20.474Z,16.33
2018-11-29T05:18:48.557Z,18.10
2018-11-29T05:21:16.630Z,19.00
2018-11-29T05:23:44.735Z,18.83
2018-11-29T05:26:12.900Z,19.07
2018-11-29T05:28:40.963Z,17.87
2018-11-29T05:31:09.111Z,17.53
2018-11-29T05:33:37.502Z,17.52
2018-11-29T05:36:05.862Z,18.10
2018-11-29T05:38:35.668Z,19.50
2018-11-29T05:41:04.118Z,17.92
2018-11-29T05:43:32.609Z,18.57
2018-11-29T05:46:00.955Z,18.20
2018-11-29T05:48:29.677Z,19.00
2018-11-29T05:50:58.074Z,16.37
2018-11-29T05:53:26.430Z,16.52
2018-11-29T05:55:54.807Z,17.02
2018-11-29T05:58:23.138Z,16.32
2018-11-29T06:00:52.534Z,18.57
2018-11-29T06:03:21.018Z,18.32
2018-11-29T06:05:50.056Z,16.82
2018-11-29T06:08:18.505Z,17.15
2018-11-29T06:10:46.878Z,15.48
2018-11-29T06:13:15.260Z,16.02
2018-11-29T06:15:43.663Z,18.52
2018-11-29T06:18:12.054Z,15.65
2018-11-29T06:20:40.451Z,15.78
2018-11-29T06:23:08.843Z,16.57
2018-11-29T06:25:37.207Z,14.33
2018-11-29T06:28:05.626Z,16.00
2018-11-29T06:30:34.235Z,15.95
2018-11-29T06:33:02.613Z,15.05
2018-11-29T06:35:31.033Z,16.42
2018-11-29T06:37:59.383Z,18.30
2018-11-29T06:40:27.769Z,17.55
2018-11-29T06:42:56.126Z,19.10
2018-11-29T06:45:24.479Z,18.12
2018-11-29T06:47:53.225Z,18.95
2018-11-29T06:50:21.745Z,17.60
2018-11-29T06:52:50.623Z,18.87
2018-11-29T06:55:21.782Z,16.85
2018-11-29T06:57:50.346Z,20.80
2018-11-29T07:00:22.644Z,18.05
2018-11-29T07:02:51.057Z,18.40
2018-11-29T07:05:19.212Z,20.13
2018-11-29T07:07:47.558Z,19.12
2018-11-29T07:10:15.677Z,20.27
2018-11-29T07:12:44.044Z,19.30
2018-11-29T07:15:12.749Z,20.30
2018-11-29T07:17:41.655Z,20.10
2018-11-29T07:20:10.908Z,20.00
2018-11-29T07:22:39.650Z,18.57
2018-11-29T07:25:08.234Z,19.33
2018-11-29T07:27:36.671Z,18.00
2018-11-29T07:30:07.127Z,15.73
2018-11-29T07:32:35.441Z,19.60
2018-11-29T07:35:04.022Z,18.03
2018-11-29T07:37:32.203Z,18.27
2018-11-29T07:40:00.393Z,18.83
2018-11-29T07:42:28.519Z,16.67
2018-11-29T07:44:56.725Z,16.73
2018-11-29T07:47:24.927Z,19.53
2018-11-29T07:49:53.174Z,17.60
2018-11-29T07:52:21.301Z,19.47
2018-11-29T07:54:49.532Z,18.20
2018-11-29T07:57:17.648Z,18.30
2018-11-29T07:59:45.839Z,17.10
2018-11-29T08:02:13.919Z,16.63
2018-11-29T08:04:42.009Z,18.23
2018-11-29T08:07:10.095Z,17.93
2018-11-29T08:09:39.790Z,17.17
2018-11-29T08:12:08.184Z,16.80
2018-11-29T08:14:36.379Z,17.87
2018-11-29T08:17:04.675Z,19.17
2018-11-29T08:19:32.761Z,16.30
2018-11-29T08:22:01.216Z,17.03
2018-11-29T08:24:29.338Z,18.80
2018-11-29T08:26:57.779Z,16.50
2018-11-29T08:29:25.921Z,16.50
2018-11-29T08:31:54.120Z,16.17
2018-11-29T08:34:22.199Z,16.43
2018-11-29T08:36:50.263Z,16.13
2018-11-29T08:39:18.467Z,17.23
2018-11-29T08:41:46.567Z,17.20
2018-11-29T08:44:14.817Z,17.00
2018-11-29T08:46:42.942Z,17.27
2018-11-29T08:49:11.207Z,16.20
2018-11-29T08:51:39.307Z,15.97
2018-11-29T08:54:07.511Z,16.40
2018-11-29T08:56:35.758Z,17.20
2018-11-29T08:59:03.871Z,16.53
2018-11-29T09:01:32.411Z,17.27
2018-11-29T09:04:00.608Z,17.17
2018-11-29T09:06:28.740Z,16.80
2018-11-29T09:08:57.269Z,17.10
2018-11-29T09:11:25.346Z,16.60
2018-11-29T09:13:54.000Z,15.70
2018-11-29T09:16:22.195Z,17.07
2018-11-29T09:18:50.239Z,16.50
2018-11-29T09:21:18.574Z,15.97
2018-11-29T09:23:46.676Z,17.30
2018-11-29T09:26:14.824Z,17.90
2018-11-29T09:28:42.923Z,17.07
2018-11-29T09:31:11.116Z,15.67
2018-11-29T09:33:39.315Z,16.50
2018-11-29T09:36:07.499Z,17.97
2018-11-29T09:38:35.643Z,16.90
2018-11-29T09:41:03.725Z,17.40
2018-11-29T09:43:31.911Z,19.37
2018-11-29T09:46:00.057Z,18.07
2018-11-29T09:48:28.462Z,17.13
2018-11-29T09:50:56.239Z,18.03
2018-11-29T09:53:24.388Z,18.00
2018-11-29T09:55:52.460Z,20.07
2018-11-29T09:58:20.556Z,18.57
2018-11-29T10:00:48.640Z,18.30
2018-11-29T10:03:16.985Z,16.93
2018-11-29T10:05:45.500Z,18.37
2018-11-29T10:08:14.463Z,19.27
2018-11-29T10:10:42.639Z,17.10
2018-11-29T10:13:10.756Z,18.57
2018-11-29T10:15:38.840Z,18.57
2018-11-29T10:18:07.204Z,17.77
2018-11-29T10:20:35.488Z,16.93
2018-11-29T10:23:03.603Z,17.57
2018-11-29T10:25:32.064Z,14.10
2018-11-29T10:28:01.943Z,16.80
2018-11-29T10:30:33.078Z,15.07
2018-11-29T10:33:01.266Z,17.13
2018-11-29T10:35:29.326Z,16.57
2018-11-29T10:37:57.423Z,15.60
2018-11-29T10:40:25.543Z,13.77
2018-11-29T10:42:53.639Z,14.77
2018-11-29T10:45:21.719Z,14.00
2018-11-29T10:47:52.549Z,15.53
2018-11-29T10:50:18.704Z,15.33
2018-11-29T10:52:46.928Z,15.67
2018-11-29T10:55:15.421Z,14.23
2018-11-29T10:57:43.699Z,13.57
2018-11-29T11:00:27.467Z,14.50
2018-11-29T11:03:07.475Z,13.03
2018-11-29T11:05:36.069Z,13.80
2018-11-29T11:08:08.040Z,13.23
2018-11-29T11:10:32.358Z,12.63
2018-11-29T11:13:00.917Z,13.47
2018-11-29T11:15:29.335Z,11.43
2018-11-29T11:17:57.898Z,12.50
2018-11-29T11:20:26.075Z,11.73
2018-11-29T11:22:54.271Z,11.10
2018-11-29T11:25:22.374Z,12.33
2018-11-29T11:27:50.779Z,11.83
2018-11-29T11:30:19.474Z,11.33
2018-11-29T11:32:48.163Z,12.23
2018-11-29T11:35:16.264Z,11.30
2018-11-29T11:37:44.412Z,11.57
2018-11-29T11:40:13.158Z,12.80
2018-11-29T11:42:41.367Z,13.37
2018-11-29T11:45:10.396Z,12.63
2018-11-29T11:47:38.657Z,13.43
2018-11-29T11:50:14.033Z,16.57
2018-11-29T11:52:42.192Z,13.80
2018-11-29T11:55:10.541Z,14.00
2018-11-29T11:57:38.749Z,12.77
2018-11-29T12:00:10.651Z,12.63
2018-11-29T12:02:38.759Z,13.47
2018-11-29T12:05:07.459Z,12.83
2018-11-29T12:07:35.562Z,13.80
2018-11-29T12:10:03.837Z,14.07
2018-11-29T12:12:32.075Z,13.57
2018-11-29T12:15:00.175Z,13.20
2018-11-29T12:17:28.376Z,14.30
2018-11-29T12:19:56.496Z,12.53
2018-11-29T12:22:24.728Z,13.23
2018-11-29T12:24:52.955Z,12.20
2018-11-29T12:27:21.138Z,12.83
2018-11-29T12:29:49.223Z,12.60
2018-11-29T12:32:17.488Z,12.80
2018-11-29T12:34:45.690Z,13.00
2018-11-29T12:37:13.831Z,14.23
2018-11-29T12:39:41.916Z,12.00
2018-11-29T12:42:10.140Z,11.87
2018-11-29T12:44:38.256Z,13.47
2018-11-29T12:47:06.439Z,12.83
2018-11-29T12:49:34.524Z,11.53
2018-11-29T12:52:03.052Z,10.90
2018-11-29T12:54:31.166Z,11.20
2018-11-29T12:56:59.238Z,10.53
2018-11-29T12:59:27.327Z,10.93
2018-11-29T13:02:01.928Z,11.10
2018-11-29T13:04:30.004Z,10.57
2018-11-29T13:06:58.202Z,10.37
2018-11-29T13:09:26.276Z,10.93
2018-11-29T13:11:54.513Z,10.57
2018-11-29T13:14:22.632Z,11.33
2018-11-29T13:16:50.713Z,10.50
2018-11-29T13:19:19.026Z,10.23
2018-11-29T13:21:47.140Z,10.70
2018-11-29T13:24:15.230Z,11.23
2018-11-29T13:26:44.329Z,10.53
2018-11-29T13:29:12.478Z,11.00
2018-11-29T13:31:40.575Z,10.27
2018-11-29T13:34:08.827Z,10.17
2018-11-29T13:36:37.006Z,10.07
2018-11-29T13:39:06.635Z,10.67
2018-11-29T13:41:35.990Z,10.53
2018-11-29T13:44:03.810Z,10.57
2018-11-29T13:46:31.944Z,10.90
2018-11-29T13:49:00.060Z,10.50
2018-11-29T13:51:28.311Z,10.33
2018-11-29T13:53:56.497Z,10.57
2018-11-29T13:56:24.759Z,9.60
2018-11-29T13:58:52.872Z,10.23
2018-11-29T14:01:21.065Z,10.90
2018-11-29T14:03:49.249Z,10.70
2018-11-29T14:06:17.377Z,10.50
2018-11-29T14:08:45.498Z,10.20
2018-11-29T14:11:14.219Z,10.93
2018-11-29T14:13:42.327Z,11.63
2018-11-29T14:16:10.781Z,11.47
2018-11-29T14:18:38.956Z,11.37
2018-11-29T14:21:07.048Z,11.00
2018-11-29T14:23:35.216Z,9.80
2018-11-29T14:26:03.319Z,11.53
2018-11-29T14:28:31.446Z,12.00
2018-11-29T14:30:59.664Z,11.80
2018-11-29T14:33:27.875Z,11.10
2018-11-29T14:35:56.596Z,12.97
2018-11-29T14:38:24.706Z,12.40
2018-11-29T14:40:52.869Z,12.27
2018-11-29T14:43:21.626Z,12.60
2018-11-29T14:45:49.707Z,13.30
2018-11-29T14:48:17.807Z,12.40
2018-11-29T14:50:46.226Z,11.73
2018-11-29T14:53:14.388Z,11.03
2018-11-29T14:55:42.600Z,12.80
2018-11-29T14:58:11.822Z,12.33
2018-11-29T15:00:40.024Z,13.30
2018-11-29T15:03:13.957Z,13.37
2018-11-29T15:05:42.694Z,13.33
2018-11-29T15:08:10.923Z,12.63
2018-11-29T15:10:39.041Z,12.87
2018-11-29T15:13:07.713Z,13.20
2018-11-29T15:15:36.611Z,14.00
2018-11-29T15:18:04.928Z,14.13
2018-11-29T15:20:36.929Z,13.27
2018-11-29T15:23:05.531Z,14.23
2018-11-29T15:25:33.684Z,14.50
2018-11-29T15:28:01.818Z,13.73
2018-11-29T15:30:30.041Z,14.30
2018-11-29T15:32:58.258Z,14.40
2018-11-29T15:35:26.509Z,14.03
2018-11-29T15:37:54.581Z,14.17
2018-11-29T15:40:23.084Z,15.17
2018-11-29T15:42:51.184Z,13.63
2018-11-29T15:45:19.974Z,12.80
2018-11-29T15:47:48.649Z,13.47
2018-11-29T15:50:17.063Z,14.40
2018-11-29T15:52:45.459Z,14.53
2018-11-29T15:55:14.488Z,15.40
2018-11-29T15:57:42.848Z,15.03
2018-11-29T16:00:15.446Z,13.63
2018-11-29T16:02:44.085Z,16.70
2018-11-29T16:05:12.615Z,15.10
2018-11-29T16:07:40.941Z,14.90
2018-11-29T16:10:10.660Z,14.67
2018-11-29T16:12:38.893Z,13.93
2018-11-29T16:15:09.003Z,13.30
2018-11-29T16:17:37.135Z,14.20
2018-11-29T16:20:07.453Z,14.77
2018-11-29T16:22:35.569Z,13.37
2018-11-29T16:25:04.313Z,14.80
2018-11-29T16:27:32.558Z,13.77
2018-11-29T16:30:00.661Z,14.17
2018-11-29T16:32:28.795Z,13.30
2018-11-29T16:34:56.969Z,14.50
2018-11-29T16:37:25.072Z,14.53
2018-11-29T16:39:53.307Z,14.23
2018-11-29T16:42:21.503Z,14.70
2018-11-29T16:44:49.653Z,15.07
2018-11-29T16:47:17.780Z,15.50
2018-11-29T16:49:45.880Z,14.77
2018-11-29T16:52:13.996Z,14.63
2018-11-29T16:54:42.234Z,14.37
2018-11-29T16:57:10.331Z,15.73
2018-11-29T16:59:38.449Z,14.90
2018-11-29T17:02:07.025Z,16.00
2018-11-29T17:04:35.142Z,13.80
2018-11-29T17:07:03.255Z,13.60
2018-11-29T17:09:31.360Z,13.53
2018-11-29T17:12:00.314Z,14.40
2018-11-29T17:14:27.621Z,13.43
2018-11-29T17:16:55.781Z,14.00
2018-11-29T17:19:24.049Z,13.97
2018-11-29T17:21:52.173Z,15.40
2018-11-29T17:24:20.338Z,14.80
2018-11-29T17:26:48.437Z,15.63
2018-11-29T17:29:16.818Z,13.77
2018-11-29T17:31:44.974Z,13.37
2018-11-29T17:34:13.189Z,14.57
2018-11-29T17:36:41.314Z,13.83
2018-11-29T17:39:09.652Z,13.37
2018-11-29T17:41:37.755Z,13.83
2018-11-29T17:44:06.015Z,13.53
2018-11-29T17:46:34.224Z,14.70
2018-11-29T17:49:02.588Z,14.80
2018-11-29T17:51:30.678Z,14.60
2018-11-29T17:53:58.816Z,15.27
2018-11-29T17:56:26.968Z,16.30
2018-11-29T17:58:55.767Z,15.30
2018-11-29T18:01:23.948Z,14.20
2018-11-29T18:03:52.108Z,15.07
2018-11-29T18:06:20.701Z,14.33
2018-11-29T18:08:48.876Z,15.57
2018-11-29T18:11:16.978Z,15.23
2018-11-29T18:13:45.707Z,18.10
2018-11-29T18:16:13.876Z,15.50
2018-11-29T18:18:42.075Z,14.57
2018-11-29T18:21:10.184Z,17.03
2018-11-29T18:23:38.354Z,15.03
2018-11-29T18:26:06.439Z,15.30
2018-11-29T18:28:34.611Z,15.40
2018-11-29T18:31:02.741Z,15.20
2018-11-29T18:33:30.960Z,16.60
2018-11-29T18:35:59.204Z,16.90
2018-11-29T18:38:27.398Z,15.57
2018-11-29T18:40:55.560Z,15.37
2018-11-29T18:43:23.689Z,15.83
2018-11-29T18:45:51.967Z,14.60
2018-11-29T18:48:20.091Z,16.37
2018-11-29T18:50:48.344Z,15.57
2018-11-29T18:53:16.597Z,15.50
2018-11-29T18:55:44.720Z,16.30
2018-11-29T18:58:12.821Z,15.27
2018-11-29T19:00:40.976Z,16.60
2018-11-29T19:03:09.700Z,16.60
2018-11-29T19:05:37.935Z,16.27
2018-11-29T19:08:07.017Z,15.77
2018-11-29T19:10:35.282Z,16.47
2018-11-29T19:13:04.195Z,14.43
2018-11-29T19:15:32.375Z,16.53
2018-11-29T19:18:00.517Z,14.23
2018-11-29T19:20:28.643Z,13.90
2018-11-29T19:22:56.955Z,14.13
2018-11-29T19:25:25.009Z,14.30
2018-11-29T19:27:53.236Z,11.80
2018-11-29T19:30:30.401Z,12.60
2018-11-29T19:33:00.464Z,12.97
2018-11-29T19:35:28.620Z,12.07
2018-11-29T19:37:56.943Z,13.30
2018-11-29T19:40:25.398Z,12.00
2018-11-29T19:42:53.665Z,11.43
2018-11-29T19:45:21.837Z,12.47
2018-11-29T19:47:50.223Z,12.60
2018-11-29T19:50:18.984Z,14.37
2018-11-29T19:52:49.129Z,13.00
2018-11-29T19:55:19.137Z,13.20
2018-11-29T19:57:47.235Z,14.67
2018-11-29T20:00:15.390Z,14.20
2018-11-29T20:02:44.531Z,13.30
2018-11-29T20:05:12.907Z,14.00
2018-11-29T20:07:41.167Z,13.23
2018-11-29T20:10:10.177Z,15.10
2018-11-29T20:12:38.378Z,14.30
2018-11-29T20:15:10.697Z,15.67
2018-11-29T20:17:39.050Z,15.53
2018-11-29T20:20:07.958Z,16.67
2018-11-29T20:22:36.174Z,15.63
2018-11-29T20:25:05.280Z,15.00
2018-11-29T20:27:33.446Z,16.00
2018-11-29T20:30:01.717Z,15.77
2018-11-29T20:32:30.006Z,15.57
2018-11-29T20:34:58.272Z,15.50
2018-11-29T20:37:27.339Z,15.63
2018-11-29T20:39:55.482Z,15.23
2018-11-29T20:42:23.730Z,16.43
2018-11-29T20:44:51.993Z,16.80
2018-11-29T20:47:20.250Z,15.70
2018-11-29T20:49:48.551Z,16.30
2018-11-29T20:52:16.676Z,16.13
2018-11-29T20:54:44.860Z,15.53
2018-11-29T20:57:13.038Z,14.57
2018-11-29T20:59:41.158Z,15.80
2018-11-29T21:02:09.315Z,14.47
2018-11-29T21:04:37.436Z,14.80
2018-11-29T21:07:05.851Z,16.27
2018-11-29T21:09:35.070Z,16.03
2018-11-29T21:12:03.239Z,14.70
2018-11-29T21:14:31.547Z,16.03
2018-11-29T21:16:59.692Z,15.07
2018-11-29T21:19:28.024Z,16.30
2018-11-29T21:21:56.155Z,16.50
2018-11-29T21:24:24.935Z,15.10
2018-11-29T21:26:53.111Z,13.63
2018-11-29T21:29:21.330Z,15.03
2018-11-29T21:31:49.455Z,15.47
2018-11-29T21:34:18.917Z,16.60
2018-11-29T21:36:47.039Z,16.73
2018-11-29T21:39:15.356Z,15.40
2018-11-29T21:41:43.616Z,15.40
2018-11-29T21:44:11.772Z,15.70
2018-11-29T21:46:39.954Z,15.63
2018-11-29T21:49:08.110Z,13.80
2018-11-29T21:51:36.288Z,16.47
2018-11-29T21:54:04.472Z,16.20
2018-11-29T21:56:32.550Z,16.43
2018-11-29T21:59:00.710Z,14.83
2018-11-29T22:01:28.906Z,15.80
2018-11-29T22:03:57.155Z,15.83
2018-11-29T22:06:25.275Z,15.30
2018-11-29T22:08:53.561Z,18.30
2018-11-29T22:11:22.016Z,15.60
2018-11-29T22:13:50.173Z,16.33
2018-11-29T22:16:18.441Z,15.77
2018-11-29T22:18:46.719Z,15.63
2018-11-29T22:21:14.937Z,16.77
2018-11-29T22:23:43.255Z,16.77
2018-11-29T22:26:12.047Z,18.57
2018-11-29T22:28:40.541Z,17.17
2018-11-29T22:31:08.714Z,17.50
2018-11-29T22:33:37.000Z,16.80
2018-11-29T22:36:05.390Z,16.00
2018-11-29T22:38:33.533Z,16.67
2018-11-29T22:41:01.714Z,20.00
2018-11-29T22:43:30.042Z,16.60
2018-11-29T22:45:58.096Z,17.60
2018-11-29T22:48:26.300Z,17.20
2018-11-29T22:50:54.392Z,17.20
2018-11-29T22:53:22.558Z,16.07
2018-11-29T22:55:50.714Z,16.67
2018-11-29T22:58:18.863Z,15.30
2018-11-29T23:00:52.363Z,15.37
2018-11-29T23:03:20.946Z,15.40
2018-11-29T23:05:49.160Z,16.90
2018-11-29T23:08:17.736Z,15.70
2018-11-29T23:10:45.914Z,15.53
2018-11-29T23:13:14.018Z,14.63
2018-11-29T23:15:42.130Z,14.57
2018-11-29T23:18:10.322Z,15.93
2018-11-29T23:20:38.410Z,14.00
2018-11-29T23:23:06.671Z,13.17
2018-11-29T23:25:35.155Z,14.80
2018-11-29T23:28:03.970Z,13.78
2018-11-29T23:30:32.478Z,15.87
2018-11-29T23:33:00.610Z,15.40
2018-11-29T23:35:28.857Z,15.50
2018-11-29T23:37:56.986Z,14.33
2018-11-29T23:40:25.110Z,14.67
2018-11-29T23:42:53.320Z,14.87
2018-11-29T23:45:21.487Z,16.53
2018-11-29T23:47:49.616Z,16.10
2018-11-29T23:50:18.094Z,17.50
2018-11-29T23:52:46.447Z,16.60
2018-11-29T23:55:16.243Z,17.50
2018-11-29T23:57:44.391Z,17.40
